Main page
METAR-TAF:

METAR-TAF

Airports :

Isfahan International Airport

Esfahān, Iran

latitude: 32-28N, longitude: 051-43E, elevation: 1590 m

Current weather observation

The report was made 18 minutes ago, at 20:00 UTC
Wind 2 kt from the East/Northeast
Temperature -6°C
Humidity 41%
Pressure 1020 hPa
Visibility 10 km or more
no clouds below 1500 m and no cumulonimbus

METAR: OIFM 222000Z 06002KT CAVOK M06/M17 Q1020 A3013

Time: 23:48 (20:18 UTC)

Forecast

The report was made 2 hours and 48 minutes ago, at 17:30 UTC
Forecast valid from 22 at 18 UTC to 23 at 24 UTC
Wind 6 kt from the Northeast
Visibility: 8000 m

TAF: OIFM 221730Z 2218/2324 04006KT 8000 NSC

Weather observations and forecasts of more than 4000 airports (METAR and TAF reports).

The available stations are represented by yellow and red dots on the map.

Hover mouse over dot to see the name of the station.

Then click to see weather observations and forecasts.

To change the map : click on the green buttons with a black cross to zoom in, on the green button with a dash to zoom out, or on the green arrows for adjacent maps.


METAR-TAF: